»·PEaware :: N698J KSNA-KSBA

N698J :: KSNA-KSBA

FLIGHT INFORMATION

Flight Status: Arrived
Operator: Privately registered:
United States
More flights under this callsign
Pilot: Ahmad S. (5672)
Aircraft: CESSNA 172 SKYHAWK
(C172)
More flights by this aircraft type
Origin: KSNA John Wayne-Orange Co
United States
Destination: KSBA Santa Barbara Mun
United States
More flights between these airports :: More routes between these airports
Route:
File this flight plan on PilotEdge
Remarks:
Altitude:
(Current/Filed)
6,500ft
Speed:
(Current/Filed)
150kts
Departed: 14-Jan-22 09:52 AM
Arrived: 14-Jan-22 10:57 AM
Distance/Time
Traveled:
108nm/1:05
Distance/Time
To Go:
Arrived

Flight Plot

Page will automatically refresh every two minutes.


Map Options




Map Legend


Flown Route
Filed Route
Departure Airport
Arrival Airport
Navaid (VOR, NDB)
Fix

Horizontal Profiles

Position Reports

Time Latitude Longitude Heading Altitude Ground
Speed
14-Jan-22 09:32 33.672097 -117.873342 251 46ft 0kts
14-Jan-22 09:33 33.672097 -117.873342 251 46ft 0kts
14-Jan-22 09:34 33.672097 -117.873342 251 46ft 0kts
14-Jan-22 09:35 33.672097 -117.873342 251 46ft 0kts
14-Jan-22 09:36 33.672097 -117.873342 251 46ft 0kts
14-Jan-22 09:37 33.672097 -117.873342 251 46ft 0kts
14-Jan-22 09:38 33.672097 -117.873342 251 46ft 0kts
14-Jan-22 09:39 33.672097 -117.873342 251 46ft 0kts
14-Jan-22 09:40 33.672097 -117.873342 251 46ft 0kts
14-Jan-22 09:41 33.672097 -117.873342 251 46ft 0kts
14-Jan-22 09:42 33.671958 -117.873502 164 45ft 3kts
14-Jan-22 09:43 33.673468 -117.871737 28 46ft 13kts
14-Jan-22 09:44 33.677668 -117.869071 27 46ft 19kts
14-Jan-22 09:45 33.681180 -117.867093 36 45ft 11kts
14-Jan-22 09:46 33.681275 -117.866469 121 45ft 0kts
14-Jan-22 09:47 33.681275 -117.866469 121 45ft 0kts
14-Jan-22 09:48 33.681275 -117.866469 121 45ft 0kts
14-Jan-22 09:49 33.681275 -117.866469 121 45ft 0kts
14-Jan-22 09:50 33.681136 -117.866176 119 44ft 9kts
14-Jan-22 09:51 33.669602 -117.872811 209 265ft 80kts
14-Jan-22 09:52 33.653896 -117.892033 231 998ft 82kts
14-Jan-22 09:53 33.639710 -117.913906 231 1712ft 83kts
14-Jan-22 09:54 33.625399 -117.936254 231 2398ft 84kts
14-Jan-22 09:55 33.610883 -117.958647 231 3050ft 85kts
14-Jan-22 09:56 33.610422 -117.985849 277 3645ft 84kts
14-Jan-22 09:57 33.612620 -118.013523 259 4240ft 83kts
14-Jan-22 09:58 33.604986 -118.040341 251 4772ft 87kts
14-Jan-22 09:59 33.603247 -118.067652 286 5274ft 85kts
14-Jan-22 10:00 33.615272 -118.089929 319 5807ft 81kts
14-Jan-22 10:01 33.632211 -118.107488 320 6354ft 76kts
14-Jan-22 10:02 33.651057 -118.127248 318 6510ft 103kts
14-Jan-22 10:03 33.673390 -118.151409 319 6512ft 109kts
14-Jan-22 10:04 33.696218 -118.176047 319 6512ft 110kts
14-Jan-22 10:05 33.719123 -118.200719 320 6513ft 111kts
14-Jan-22 10:06 33.742145 -118.225558 320 6514ft 111kts
14-Jan-22 10:07 33.765243 -118.250463 320 6514ft 111kts
14-Jan-22 10:08 33.788302 -118.275720 319 6509ft 112kts
14-Jan-22 10:09 33.811712 -118.300648 320 6505ft 112kts
14-Jan-22 10:10 33.834974 -118.325781 320 6503ft 112kts
14-Jan-22 10:11 33.858287 -118.350987 320 6502ft 112kts
14-Jan-22 10:12 33.881560 -118.376216 317 6504ft 112kts
14-Jan-22 10:13 33.902524 -118.402056 332 6504ft 110kts
14-Jan-22 10:14 33.925973 -118.425914 315 6504ft 113kts
14-Jan-22 10:15 33.953150 -118.442401 345 6503ft 111kts
14-Jan-22 10:16 33.982184 -118.456011 341 6503ft 112kts
14-Jan-22 10:17 34.011279 -118.470070 340 6501ft 112kts
14-Jan-22 10:18 34.040288 -118.484168 341 6503ft 112kts
14-Jan-22 10:19 34.069329 -118.498325 341 6503ft 111kts
14-Jan-22 10:20 34.098751 -118.512668 341 6488ft 113kts
14-Jan-22 10:21 34.125746 -118.528986 297 6478ft 113kts
14-Jan-22 10:22 34.133555 -118.567493 286 6509ft 123kts
14-Jan-22 10:23 34.140839 -118.607871 289 6494ft 122kts
14-Jan-22 10:24 34.150231 -118.647357 291 6502ft 123kts
14-Jan-22 10:25 34.159717 -118.687342 290 6488ft 122kts
14-Jan-22 10:26 34.168839 -118.726705 291 6495ft 121kts
14-Jan-22 10:27 34.177772 -118.765437 290 6496ft 118kts
14-Jan-22 10:28 34.186879 -118.804708 290 6523ft 124kts
14-Jan-22 10:29 34.196357 -118.844951 290 6487ft 121kts
14-Jan-22 10:30 34.205700 -118.884101 290 6515ft 124kts
14-Jan-22 10:31 34.215684 -118.924662 290 6509ft 127kts
14-Jan-22 10:32 34.226160 -118.965944 291 6501ft 128kts
14-Jan-22 10:33 34.236677 -119.006850 290 6503ft 126kts
14-Jan-22 10:34 34.247398 -119.047254 290 6504ft 126kts
14-Jan-22 10:35 34.258203 -119.087184 290 6508ft 125kts
14-Jan-22 10:36 34.269199 -119.127255 290 6506ft 125kts
14-Jan-22 10:37 34.286848 -119.162918 307 6508ft 124kts
14-Jan-22 10:38 34.306615 -119.197436 308 6507ft 125kts
14-Jan-22 10:39 34.326544 -119.231870 308 6504ft 124kts
14-Jan-22 10:40 34.346415 -119.265975 306 6504ft 124kts
14-Jan-22 10:41 34.356855 -119.305428 282 6500ft 124kts
14-Jan-22 10:42 34.363636 -119.346864 282 6504ft 128kts
14-Jan-22 10:43 34.370615 -119.389022 281 6491ft 127kts
14-Jan-22 10:44 34.377199 -119.431203 279 6387ft 127kts
14-Jan-22 10:45 34.383006 -119.470226 293 5874ft 113kts
14-Jan-22 10:46 34.397933 -119.504580 301 5391ft 118kts
14-Jan-22 10:47 34.414382 -119.539632 302 4894ft 121kts
14-Jan-22 10:48 34.426125 -119.577660 282 4390ft 122kts
14-Jan-22 10:49 34.429786 -119.619480 272 3780ft 125kts
14-Jan-22 10:50 34.430964 -119.661590 269 3167ft 125kts
14-Jan-22 10:51 34.430761 -119.702133 268 2363ft 118kts
14-Jan-22 10:52 34.430623 -119.739953 268 1817ft 107kts
14-Jan-22 10:53 34.430299 -119.775111 268 1319ft 102kts
14-Jan-22 10:54 34.428338 -119.803474 270 976ft 70kts
14-Jan-22 10:55 34.428043 -119.827530 266 311ft 69kts
14-Jan-22 10:56 34.427300 -119.841577 166 15ft 7kts
14-Jan-22 10:57 34.426943 -119.841469 165 16ft 0kts
14-Jan-22 10:58 34.426557 -119.838337 148 18ft 8kts
14-Jan-22 10:59 34.423067 -119.837321 168 17ft 9kts
14-Jan-22 11:00 34.422627 -119.835895 163 16ft 4kts
14-Jan-22 11:01 34.422352 -119.835851 166 16ft 0kts
14-Jan-22 11:02 34.422352 -119.835851 166 16ft 0kts
14-Jan-22 11:03 34.422352 -119.835851 166 16ft 0kts
14-Jan-22 11:04 34.422352 -119.835851 166 16ft 0kts
14-Jan-22 11:05 34.422352 -119.835851 166 16ft 0kts
14-Jan-22 11:06 34.422352 -119.835851 166 16ft 0kts
14-Jan-22 11:07 34.422352 -119.835851 166 16ft 0kts
14-Jan-22 11:08 34.422352 -119.835851 166 16ft 0kts
14-Jan-22 11:09 34.422352 -119.835851 166 16ft 0kts
14-Jan-22 11:10 34.422352 -119.835851 166 16ft 0kts

Navigation Log

Ident Type
Flight plan parsing failed, navigation log unavailable